Address 0x297a8110a639d1318cee2c5d23ae5a15f1d964da

 
 
Txn Hash Method
Block
From
To
Value [Txn Fee]
0x212c001932aa87eae2b81859af4afccacc8944c2922f9d15916102c0200e5162Transfer85577162021-06-23 21:22:1895 days 4 hrs ago0x297a8110a639d1318cee2c5d23ae5a15f1d964daOUT0x32a115c61abd2847386788336d9adfec8478cc0e0.002432339350631 BNB0.000105
0xf8aa8c7c1fd584d2735062e4ec0bd724f585f28ba054becc9cf3c0486078a38dSwap Exact Token...85576872021-06-23 21:20:5195 days 4 hrs ago0x297a8110a639d1318cee2c5d23ae5a15f1d964daOUT PancakeSwap: Router v20 BNB0.00132462
0x7fdb5af08d6d714a3eea8756c94c9057f1a429f466048d625d7a74c14d149e1cApprove85576762021-06-23 21:20:1895 days 4 hrs ago0x297a8110a639d1318cee2c5d23ae5a15f1d964daOUT 0x6e0bef56b648b3eebae3808b8cbe7efe8755ad9c0 BNB0.00023132
0x969179d7a1f8db46fc90d566c6db356394f667f97e8d49ebe50035af10cc2f19Approve85576282021-06-23 21:17:5495 days 4 hrs ago0x297a8110a639d1318cee2c5d23ae5a15f1d964daOUT FootballStars: FOOTBALLSTARS Token0 BNB0.00022226
0x6d12ebdbc61d5cb2c9791c6d7148bc232812311991acb862082466089befdb56Transfer85576182021-06-23 21:17:2495 days 4 hrs ago0x32a115c61abd2847386788336d9adfec8478cc0e IN 0x297a8110a639d1318cee2c5d23ae5a15f1d964da0.003064314662043 BNB0.000105
0xa70584dc96028d4314dba711a810dc1a923beae604655886851b2316252e97abTransfer85052592021-06-22 1:24:0597 days 22 mins ago0x297a8110a639d1318cee2c5d23ae5a15f1d964daOUT0x44635f11fdb465ba0331cb058653e1e32a357bcd0.00400637881935 BNB0.000105
0x3a3883add7c3e4a6230925064a905e37802c7411db8bcf8db9c828bf9fd63a5eTransfer85039302021-06-22 0:17:0297 days 1 hr ago0x297a8110a639d1318cee2c5d23ae5a15f1d964daOUT 0x1e5f009d4f8ca44b5fcc4963dd301da82b4eed090 BNB0.00137932
0x157146d5c412498ed68dedfc98e53b4c858efde0f824a8e848b768e383350bb1Transfer85039192021-06-22 0:16:2997 days 1 hr ago0x44635f11fdb465ba0331cb058653e1e32a357bcd IN 0x297a8110a639d1318cee2c5d23ae5a15f1d964da0.00549069881935 BNB0.000105
0x1fd003fc898940d2c143d56cc3689ff6d931325488b8c48c870944bfc10e4ffdTransfer84645352021-06-20 15:22:5098 days 10 hrs ago0x297a8110a639d1318cee2c5d23ae5a15f1d964daOUT0x44635f11fdb465ba0331cb058653e1e32a357bcd0.015564610847849 BNB0.000105
0x3247e77bf9db52669af3e7fd4202685615f442933c2306b144f4f73b46b16363Swap Exact Token...84643832021-06-20 15:15:1498 days 10 hrs ago0x297a8110a639d1318cee2c5d23ae5a15f1d964daOUT PancakeSwap: Router v20 BNB0.00103099
0xcb335368e4569c30e05c06d08a1320f4862968647095e7941525a8eef23d42c2Swap Exact Token...84643492021-06-20 15:13:3298 days 10 hrs ago0x297a8110a639d1318cee2c5d23ae5a15f1d964daOUT PancakeSwap: Router v20 BNB0.00102073
0x96af3986e93b325006c4c4457176d46bf93fdcbeb0c884b213c445ade0a56726Approve84643292021-06-20 15:12:3298 days 10 hrs ago0x297a8110a639d1318cee2c5d23ae5a15f1d964daOUT LaikaCoin: LAIKA Token0 BNB0.00022226
0x8c4f21b433a0400843c74d8aca5778716938e17add2d5577e5a896742957fc3cSwap Exact Token...84643092021-06-20 15:11:3298 days 10 hrs ago0x297a8110a639d1318cee2c5d23ae5a15f1d964daOUT PancakeSwap: Router v20 BNB0.00451113
0x75bd585679b1482fc2c4838033407e2fcb3eb80f555e37abae6475a79fac5b42Swap Exact Token...84641892021-06-20 15:05:3298 days 10 hrs ago0x297a8110a639d1318cee2c5d23ae5a15f1d964daOUT PancakeSwap: Router v20 BNB0.001708085
0xe6f3533eeb057ccd023c65e97cd120b00e3e306c7169c287a36f232fbe20bc4cSwap Exact Token...84641672021-06-20 15:04:2698 days 10 hrs ago0x297a8110a639d1318cee2c5d23ae5a15f1d964daOUT PancakeSwap: Router v20 BNB0.001061685
0xd4a86701697e8956bd1e1f2a9f822e7e2d78fd3118eda3291423a2f8a789c9ccApprove84641282021-06-20 15:02:2998 days 10 hrs ago0x297a8110a639d1318cee2c5d23ae5a15f1d964daOUT 0xb1035523a844371c2877f8a3b2f2f8d337403b6f0 BNB0.000225805
0xa812f7970b133cf1f2f302b4cdf68e198711de7b52c6e475e6aa2774e73dc223Transfer84640752021-06-20 14:59:5098 days 10 hrs ago0x44635f11fdb465ba0331cb058653e1e32a357bcd IN 0x297a8110a639d1318cee2c5d23ae5a15f1d964da0.002153482054549 BNB0.000105
0x7fe2a8923cada411466747a07739981f8f9360b507e1463aecb3d5c5ca284a2bApprove84435192021-06-19 21:50:3499 days 3 hrs ago0x297a8110a639d1318cee2c5d23ae5a15f1d964daOUT 0x94438ef2c17c3d1dee602b94c27e57128bb407b20 BNB0.00022245
0xb4d9d632d6d844bf9af672b6aca4d1c293c6e6d5775a1a3cd19c04396d1160efTransfer84434942021-06-19 21:49:1999 days 3 hrs ago0x297a8110a639d1318cee2c5d23ae5a15f1d964daOUT 0x94438ef2c17c3d1dee602b94c27e57128bb407b20 BNB0.0001547
0x0ec4d5e61e460f4a66c3163648cb10b8344bf0a732af8c0987da694e0b022e5eApprove84387192021-06-19 17:50:2199 days 7 hrs ago0x297a8110a639d1318cee2c5d23ae5a15f1d964daOUT 0xc30f12cd65f61ded24db6c415c84f999c9704ebc0 BNB0.00022274
0x314bf50b89ceeebf6a97a4af830bd40d396ab101fc9b2e01a126b3682bdbd34dSwap ETH For Exa...84377972021-06-19 17:03:5799 days 8 hrs ago0x297a8110a639d1318cee2c5d23ae5a15f1d964daOUT PancakeSwap: Router v20.000207683497829 BNB0.00073458
0x9ce6e95faebb293208a1206b2c3b63ebafe0aba413f4558360474c32737b2e6fTransfer84377292021-06-19 17:00:3399 days 8 hrs ago0x44635f11fdb465ba0331cb058653e1e32a357bcd IN 0x297a8110a639d1318cee2c5d23ae5a15f1d964da0.003034772950022 BNB0.000105
0xc034916a1e189ca53aa6f0e308466f260b97811125d275591bb32f585f813bd4Transfer84288962021-06-19 9:30:2299 days 16 hrs ago0x297a8110a639d1318cee2c5d23ae5a15f1d964daOUT0xb882e177287f2b359b49a1640be3e0c25f5dfd4b0.013792921421215 BNB0.000105
0x6c1d2e360b29cc00fc13507650e8a6aa71034f14ce786c268c712980963fc67dSwap Exact Token...84255392021-06-19 6:42:2699 days 19 hrs ago0x297a8110a639d1318cee2c5d23ae5a15f1d964daOUT PancakeSwap: Router v20 BNB0.000627095
0x460723fda3255df14f2a2b07901abbe4fb5c144d9a64f6e2c3d28f5f7a57d19aApprove84255312021-06-19 6:42:0299 days 19 hrs ago0x297a8110a639d1318cee2c5d23ae5a15f1d964daOUT 0x545ae98e5f3c42f1b39c6e55850c14aefe40a2960 BNB0.00022203
[ Download CSV Export 
Latest 8 internal transactions
Parent Txn Hash Block From To Value
0xf8aa8c7c1fd584d2735062e4ec0bd724f585f28ba054becc9cf3c0486078a38d85576872021-06-23 21:20:5195 days 4 hrs ago PancakeSwap: Router v20x297a8110a639d1318cee2c5d23ae5a15f1d964da0.001251224688588016 BNB
0x3247e77bf9db52669af3e7fd4202685615f442933c2306b144f4f73b46b1636384643832021-06-20 15:15:1498 days 10 hrs ago PancakeSwap: Router v20x297a8110a639d1318cee2c5d23ae5a15f1d964da0.005582016025972134 BNB
0xcb335368e4569c30e05c06d08a1320f4862968647095e7941525a8eef23d42c284643492021-06-20 15:13:3298 days 10 hrs ago PancakeSwap: Router v20x297a8110a639d1318cee2c5d23ae5a15f1d964da0.002614375817149176 BNB
0x8c4f21b433a0400843c74d8aca5778716938e17add2d5577e5a896742957fc3c84643092021-06-20 15:11:3298 days 10 hrs ago PancakeSwap: Router v20x297a8110a639d1318cee2c5d23ae5a15f1d964da0.004705406416121313 BNB
0x75bd585679b1482fc2c4838033407e2fcb3eb80f555e37abae6475a79fac5b4284641892021-06-20 15:05:3298 days 10 hrs ago PancakeSwap: Router v20x297a8110a639d1318cee2c5d23ae5a15f1d964da0.004445664221917265 BNB
0xe6f3533eeb057ccd023c65e97cd120b00e3e306c7169c287a36f232fbe20bc4c84641672021-06-20 15:04:2698 days 10 hrs ago PancakeSwap: Router v20x297a8110a639d1318cee2c5d23ae5a15f1d964da0.004456711093674004 BNB
0x314bf50b89ceeebf6a97a4af830bd40d396ab101fc9b2e01a126b3682bdbd34d84377972021-06-19 17:03:5799 days 8 hrs ago PancakeSwap: Router v20x297a8110a639d1318cee2c5d23ae5a15f1d964da0.000000020766273155 BNB
0x6c1d2e360b29cc00fc13507650e8a6aa71034f14ce786c268c712980963fc67d84255392021-06-19 6:42:2699 days 19 hrs ago PancakeSwap: Router v20x297a8110a639d1318cee2c5d23ae5a15f1d964da0.013132599056302649 BNB
[ Download CSV Export 
Loading

Contract Name:
0 BNB

Compiler Version
0

Optimization Enabled:
0 BNB

Other Settings:
-NA-
Block Transaction Gas Used Reward
Age Block Fee Address BC Fee Address Voting Power Jailed Incoming
Block Uncle Number Difficulty Gas Used Reward
Loading
Loading
Make sure to use the "Vote Down" button for any spammy posts, and the "Vote Up" for interesting conversations.